Time;durP1;ratioP1;P1;durP2;ratioP2;P2;SDS_P1;SDS_P2;PMS_P1;PMS_P2;Temp;Humidity;BMP_temperature;BMP_pressure;BME280_temperature;BME280_humidity;BME280_pressure;Samples;Min_cycle;Max_cycle;Signal;HPM_P1;HPM_P2
2023/12/30 00:00:25;;;;;;;14.77;13.27;;;;;;;7.51;100.00;147933.22;5092955;28;20631;-64
2023/12/30 00:02:52;;;;;;;13.57;12.27;;;;;;;7.60;100.00;147955.88;5092457;28;20184;-64
2023/12/30 00:05:19;;;;;;;14.00;12.67;;;;;;;7.48;100.00;147926.88;5092430;28;20257;-63
2023/12/30 00:07:46;;;;;;;14.50;12.70;;;;;;;7.53;100.00;147939.50;5092801;28;20606;-65
2023/12/30 00:10:15;;;;;;;20.37;13.73;;;;;;;7.43;100.00;147914.25;5092225;28;20242;-63
2023/12/30 00:12:42;;;;;;;15.53;12.87;;;;;;;7.39;100.00;147902.91;5092458;28;20225;-62
2023/12/30 00:15:10;;;;;;;21.40;13.53;;;;;;;7.23;100.00;147863.84;5092684;28;20260;-63
2023/12/30 00:17:37;;;;;;;14.40;13.00;;;;;;;7.13;100.00;147838.66;5092340;28;20233;-63
2023/12/30 00:20:05;;;;;;;14.40;13.20;;;;;;;7.09;100.00;147829.78;5092471;28;20184;-63
2023/12/30 00:22:32;;;;;;;17.83;13.93;;;;;;;7.02;100.00;147810.91;5092580;28;20242;-64
2023/12/30 00:24:59;;;;;;;14.50;13.10;;;;;;;6.90;100.00;147781.94;5092209;28;20291;-64
2023/12/30 00:27:28;;;;;;;14.40;12.97;;;;;;;6.30;100.00;147632.00;5092941;28;20187;-64
2023/12/30 00:29:55;;;;;;;14.13;12.80;;;;;;;6.61;100.00;147710.13;5092357;28;20180;-63
2023/12/30 00:32:22;;;;;;;14.80;12.67;;;;;;;6.59;100.00;147703.78;5092111;28;20188;-63
2023/12/30 00:34:49;;;;;;;15.57;14.07;;;;;;;6.53;100.00;147689.97;5092267;28;20180;-64
2023/12/30 00:37:20;;;;;;;14.27;13.07;;;;;;;6.40;100.00;147658.47;5091992;28;20278;-64
2023/12/30 00:39:47;;;;;;;12.37;11.47;;;;;;;6.37;100.00;147649.59;5092291;28;20184;-64
2023/12/30 00:42:14;;;;;;;13.03;11.90;;;;;;;6.45;100.00;147669.75;5091904;28;20184;-63
2023/12/30 00:44:42;;;;;;;13.30;11.47;;;;;;;6.59;100.00;147703.78;5091975;28;20237;-63
2023/12/30 00:47:09;;;;;;;12.53;11.37;;;;;;;6.69;100.00;147730.28;5092198;28;20714;-64
2023/12/30 00:49:37;;;;;;;13.13;11.97;;;;;;;6.75;100.00;147744.09;5092406;28;20237;-64
2023/12/30 00:52:04;;;;;;;12.80;11.73;;;;;;;6.83;100.00;147764.31;5092120;28;20550;-64
2023/12/30 00:54:31;;;;;;;12.67;11.67;;;;;;;6.84;100.00;147768.06;5091633;28;20228;-63
2023/12/30 00:56:58;;;;;;;12.67;11.67;;;;;;;6.74;100.00;147741.63;5091824;28;20184;-64
2023/12/30 00:59:25;;;;;;;13.07;11.80;;;;;;;6.85;100.00;147769.31;5091918;28;20253;-63
2023/12/30 01:01:53;;;;;;;12.60;11.43;;;;;;;6.85;100.00;147769.31;5092285;28;20585;-64
2023/12/30 01:04:20;;;;;;;12.73;11.50;;;;;;;6.87;100.00;147775.59;5091755;28;20191;-64
2023/12/30 01:06:47;;;;;;;13.97;11.30;;;;;;;6.88;100.00;147776.88;5095278;28;20218;-64
2023/12/30 01:09:15;;;;;;;15.17;12.03;;;;;;;6.84;100.00;147766.78;5096060;28;20180;-63
2023/12/30 01:11:42;;;;;;;13.20;11.90;;;;;;;6.85;100.00;147770.59;5095830;28;20188;-64
2023/12/30 01:14:09;;;;;;;17.10;13.10;;;;;;;6.73;100.00;147740.34;5095699;28;20187;-63
2023/12/30 01:16:36;;;;;;;17.30;12.37;;;;;;;6.80;100.00;147757.97;5095953;28;20608;-64
2023/12/30 01:19:04;;;;;;;14.30;12.17;;;;;;;6.75;100.00;147744.09;5096145;28;20640;-63
2023/12/30 01:21:31;;;;;;;12.30;11.30;;;;;;;6.80;100.00;147757.97;5095961;28;20605;-64
2023/12/30 01:23:59;;;;;;;12.77;11.57;;;;;;;6.82;100.00;147763.03;5095523;28;20184;-63
2023/12/30 01:26:26;;;;;;;13.37;12.03;;;;;;;6.74;100.00;147742.88;5095421;28;20215;-64
2023/12/30 01:28:53;;;;;;;13.50;12.40;;;;;;;6.85;100.00;147770.59;5095614;28;20188;-63
2023/12/30 01:31:20;;;;;;;14.60;12.67;;;;;;;6.79;100.00;147755.44;5095624;28;20191;-65
2023/12/30 01:33:47;;;;;;;16.73;13.20;;;;;;;6.71;100.00;147735.28;5095402;28;20180;-63
2023/12/30 01:36:15;;;;;;;15.00;13.53;;;;;;;6.60;100.00;147706.31;5095679;28;20180;-63
2023/12/30 01:38:42;;;;;;;15.07;13.53;;;;;;;6.42;100.00;147662.22;5095384;28;20191;-63
2023/12/30 01:41:09;;;;;;;16.70;14.23;;;;;;;6.49;100.00;147679.88;5095310;28;20184;-64
2023/12/30 01:43:37;;;;;;;20.73;14.40;;;;;;;6.57;100.00;147698.78;5095252;28;20184;-63
2023/12/30 01:46:08;;;;;;;16.30;14.13;;;;;;;6.49;100.00;147679.88;5095085;28;20298;-65
2023/12/30 01:48:35;;;;;;;16.23;14.47;;;;;;;6.69;100.00;147730.28;5095526;28;20180;-63
2023/12/30 01:51:04;;;;;;;16.30;14.07;;;;;;;6.81;100.00;147759.25;5095276;28;20635;-63
2023/12/30 01:53:34;;;;;;;24.00;15.80;;;;;;;6.69;100.00;147730.28;5095032;28;20228;-66
2023/12/30 01:56:02;;;;;;;16.13;14.40;;;;;;;6.74;100.00;147742.88;5095349;28;20184;-65
2023/12/30 01:58:29;;;;;;;15.23;13.73;;;;;;;6.54;100.00;147692.44;5095352;28;20536;-63
2023/12/30 02:00:58;;;;;;;15.83;13.97;;;;;;;6.57;100.00;147700.03;5094900;28;20223;-63
2023/12/30 02:03:25;;;;;;;17.90;13.77;;;;;;;6.59;100.00;147705.06;5095261;28;20607;-63
2023/12/30 02:05:52;;;;;;;18.07;14.93;;;;;;;6.59;100.00;147703.78;5094980;28;20204;-62
2023/12/30 02:08:20;;;;;;;30.60;14.73;;;;;;;6.65;100.00;147720.19;5094871;28;20337;-63
2023/12/30 02:10:48;;;;;;;23.67;14.80;;;;;;;6.67;100.00;147725.22;5094760;28;20237;-64
2023/12/30 02:13:15;;;;;;;20.23;14.83;;;;;;;6.66;100.00;147722.66;5094756;28;20188;-63
2023/12/30 02:15:42;;;;;;;24.37;15.17;;;;;;;6.67;100.00;147725.22;5094075;28;20180;-64
2023/12/30 02:18:09;;;;;;;21.63;16.00;;;;;;;6.67;100.00;147723.94;5094812;28;20184;-63
2023/12/30 02:20:37;;;;;;;24.10;15.53;;;;;;;6.57;100.00;147698.78;5095084;28;20626;-63
2023/12/30 02:23:05;;;;;;;17.40;14.97;;;;;;;6.51;100.00;147684.91;5094632;28;20215;-63
2023/12/30 02:25:32;;;;;;;19.47;14.47;;;;;;;6.52;100.00;147686.16;5094502;28;20250;-64
2023/12/30 02:27:59;;;;;;;23.73;15.30;;;;;;;6.48;100.00;147677.34;5094422;28;20188;-64
2023/12/30 02:30:26;;;;;;;16.50;14.53;;;;;;;6.53;100.00;147689.97;5094533;28;20229;-64
2023/12/30 02:32:57;;;;;;;18.07;14.33;;;;;;;6.41;100.00;147660.94;5094489;28;20570;-63
2023/12/30 02:35:24;;;;;;;17.10;14.60;;;;;;;6.38;100.00;147652.13;5094719;28;20730;-63
2023/12/30 02:37:51;;;;;;;16.53;13.90;;;;;;;6.38;100.00;147652.13;5094616;28;20626;-63
2023/12/30 02:40:20;;;;;;;18.90;13.33;;;;;;;6.39;100.00;147655.94;5094551;28;20718;-64
2023/12/30 02:42:47;;;;;;;16.00;14.07;;;;;;;6.52;100.00;147686.16;5094279;28;20184;-63
2023/12/30 02:45:14;;;;;;;14.27;12.77;;;;;;;6.55;100.00;147694.97;5094283;28;20233;-64
2023/12/30 02:47:42;;;;;;;17.37;13.13;;;;;;;6.61;100.00;147708.84;5094421;28;20234;-64
2023/12/30 02:50:10;;;;;;;18.47;13.13;;;;;;;6.60;100.00;147707.59;5093854;28;20192;-64
2023/12/30 02:52:37;;;;;;;16.43;12.77;;;;;;;6.54;100.00;147691.19;5093998;28;20671;-64
2023/12/30 02:55:06;;;;;;;17.03;12.43;;;;;;;6.56;100.00;147697.50;5094163;28;20700;-64
2023/12/30 02:57:34;;;;;;;14.53;13.13;;;;;;;6.46;100.00;147672.28;5093797;28;20241;-63
2023/12/30 03:00:01;;;;;;;13.80;12.63;;;;;;;6.41;100.00;147659.69;5094052;28;20299;-64
2023/12/30 03:02:28;;;;;;;12.77;11.53;;;;;;;6.58;100.00;147701.25;5093712;28;20279;-64
2023/12/30 03:04:57;;;;;;;13.53;12.27;;;;;;;6.66;100.00;147721.47;5094063;28;20184;-64
2023/12/30 03:07:24;;;;;;;14.13;12.80;;;;;;;6.58;100.00;147702.53;5093809;28;20697;-64
2023/12/30 03:09:51;;;;;;;18.90;13.10;;;;;;;6.50;100.00;147681.09;5093823;28;20554;-64
2023/12/30 03:12:18;;;;;;;19.20;12.87;;;;;;;6.49;100.00;147678.63;5093778;28;20189;-63
2023/12/30 03:14:47;;;;;;;13.20;12.00;;;;;;;6.44;100.00;147667.28;5093499;28;20196;-64
2023/12/30 03:17:14;;;;;;;14.70;12.77;;;;;;;6.46;100.00;147672.28;5093540;28;20184;-64
2023/12/30 03:19:41;;;;;;;14.87;13.07;;;;;;;6.49;100.00;147679.88;5093636;28;20634;-64
2023/12/30 03:22:08;;;;;;;13.93;12.50;;;;;;;6.37;100.00;147650.88;5093268;28;20185;-63
2023/12/30 03:24:35;;;;;;;14.40;13.03;;;;;;;6.36;100.00;147648.41;5093315;28;20185;-64
2023/12/30 03:27:03;;;;;;;15.93;13.03;;;;;;;6.34;100.00;147643.34;5093054;28;20279;-63
2023/12/30 03:29:30;;;;;;;24.67;14.07;;;;;;;6.28;100.00;147626.97;5093046;28;20634;-63
2023/12/30 03:31:58;;;;;;;15.13;13.53;;;;;;;6.32;100.00;147637.06;5093057;28;20180;-63
2023/12/30 03:34:25;;;;;;;17.50;12.27;;;;;;;6.29;100.00;147629.47;5093621;28;20609;-64
2023/12/30 03:36:53;;;;;;;15.97;13.20;;;;;;;6.31;100.00;147634.53;5093459;28;20646;-64
2023/12/30 03:39:20;;;;;;;15.10;12.97;;;;;;;6.31;100.00;147635.78;5093230;28;20192;-62
2023/12/30 03:41:47;;;;;;;14.47;13.00;;;;;;;6.35;100.00;147644.59;5092940;28;20233;-63
2023/12/30 03:44:14;;;;;;;16.40;12.93;;;;;;;6.37;100.00;147650.88;5093147;28;20539;-65
2023/12/30 03:46:41;;;;;;;13.83;12.50;;;;;;;6.31;100.00;147634.53;5092945;28;20204;-63
2023/12/30 03:49:09;;;;;;;16.97;13.00;;;;;;;6.29;100.00;147629.47;5092759;28;20268;-65
2023/12/30 03:51:36;;;;;;;16.80;12.87;;;;;;;6.35;100.00;147644.59;5093209;28;20257;-63
2023/12/30 03:54:03;;;;;;;17.27;12.67;;;;;;;6.15;100.00;147594.22;5092537;28;20236;-63
2023/12/30 03:56:30;;;;;;;17.70;12.93;;;;;;;6.12;100.00;147587.91;5092763;28;20184;-64
2023/12/30 03:58:59;;;;;;;14.93;12.57;;;;;;;6.13;100.00;147589.16;5092580;28;20260;-63
2023/12/30 04:01:27;;;;;;;13.97;12.57;;;;;;;6.18;100.00;147601.78;5092781;28;20668;-64
2023/12/30 04:03:54;;;;;;;13.60;12.07;;;;;;;6.14;100.00;147592.97;5092486;28;20188;-64
2023/12/30 04:06:22;;;;;;;15.27;12.60;;;;;;;6.25;100.00;147620.66;5092740;28;20292;-63
2023/12/30 04:08:49;;;;;;;16.70;13.00;;;;;;;6.15;100.00;147594.22;5092397;28;20218;-63
2023/12/30 04:11:16;;;;;;;13.47;12.37;;;;;;;6.19;100.00;147604.31;5092836;28;20604;-64
2023/12/30 04:13:43;;;;;;;15.83;13.23;;;;;;;6.16;100.00;147597.97;5092408;28;20185;-64
2023/12/30 04:16:10;;;;;;;13.60;12.40;;;;;;;6.15;100.00;147595.50;5092320;28;20271;-63
2023/12/30 04:18:38;;;;;;;13.50;12.13;;;;;;;6.21;100.00;147609.31;5092331;28;20180;-63
2023/12/30 04:21:05;;;;;;;17.37;11.83;;;;;;;6.11;100.00;147584.16;5092491;28;20195;-63
2023/12/30 04:23:34;;;;;;;14.03;12.77;;;;;;;6.18;100.00;147601.78;5092587;28;20396;-64
2023/12/30 04:26:01;;;;;;;13.30;11.97;;;;;;;6.24;100.00;147616.84;5091952;28;20200;-64
2023/12/30 04:28:28;;;;;;;17.13;13.37;;;;;;;6.23;100.00;147614.38;5092454;28;20241;-63
2023/12/30 04:30:55;;;;;;;14.07;12.60;;;;;;;6.20;100.00;147606.78;5092147;28;20188;-63
2023/12/30 04:33:22;;;;;;;16.27;13.23;;;;;;;6.27;100.00;147625.72;5092323;28;20262;-63
2023/12/30 04:35:49;;;;;;;14.73;13.23;;;;;;;6.27;100.00;147624.44;5092302;28;20630;-64
2023/12/30 04:38:18;;;;;;;19.60;14.23;;;;;;;6.29;100.00;147630.72;5091994;28;20304;-63
2023/12/30 04:40:46;;;;;;;15.03;13.60;;;;;;;6.22;100.00;147613.09;5091991;28;20542;-63
2023/12/30 04:43:13;;;;;;;15.70;13.00;;;;;;;6.36;100.00;147647.13;5091905;28;20176;-64
2023/12/30 04:45:40;;;;;;;14.17;12.87;;;;;;;6.38;100.00;147652.13;5091742;28;20219;-63
2023/12/30 04:48:08;;;;;;;15.77;13.03;;;;;;;6.03;100.00;147563.97;5092299;28;20253;-63
2023/12/30 04:50:36;;;;;;;18.23;13.30;;;;;;;6.44;100.00;147667.28;5092166;28;20669;-63
2023/12/30 04:53:03;;;;;;;15.00;13.00;;;;;;;6.42;100.00;147663.47;5091902;28;20265;-63
2023/12/30 04:55:30;;;;;;;16.63;13.33;;;;;;;6.45;100.00;147669.75;5092102;28;20195;-63
2023/12/30 04:57:59;;;;;;;16.00;13.00;;;;;;;6.48;100.00;147677.34;5092067;28;20180;-64
2023/12/30 05:00:26;;;;;;;14.93;12.93;;;;;;;6.53;100.00;147688.69;5091874;28;20210;-64
2023/12/30 05:02:53;;;;;;;18.50;13.73;;;;;;;6.55;100.00;147694.97;5091840;28;20188;-64
2023/12/30 05:05:20;;;;;;;25.43;14.73;;;;;;;6.32;100.00;147637.06;5091914;28;20180;-64
2023/12/30 05:07:47;;;;;;;20.63;12.80;;;;;;;6.29;100.00;147629.47;5091506;28;20200;-64
2023/12/30 05:10:14;;;;;;;12.83;11.40;;;;;;;6.23;100.00;147614.38;5092068;28;20608;-63
2023/12/30 05:12:41;;;;;;;12.50;11.40;;;;;;;6.30;100.00;147632.00;5091641;28;20180;-64
2023/12/30 05:15:13;;;;;;;14.57;11.77;;;;;;;6.47;100.00;147674.81;5092011;28;20188;-63
2023/12/30 05:17:40;;;;;;;12.67;11.77;;;;;;;6.48;100.00;147676.09;5091671;28;20188;-64
2023/12/30 05:20:10;;;;;;;16.20;12.27;;;;;;;6.29;100.00;147629.47;5091525;28;20195;-63
2023/12/30 05:22:37;;;;;;;16.70;12.37;;;;;;;6.47;100.00;147674.81;5091493;28;20185;-63
2023/12/30 05:25:04;;;;;;;14.00;12.03;;;;;;;6.47;100.00;147674.81;5091822;28;20188;-63
2023/12/30 05:27:31;;;;;;;16.07;12.33;;;;;;;6.55;100.00;147693.72;5091387;28;20229;-64
2023/12/30 05:29:59;;;;;;;17.47;11.97;;;;;;;6.58;100.00;147702.53;5091427;28;20188;-63
2023/12/30 05:32:27;;;;;;;16.47;11.73;;;;;;;6.61;100.00;147710.13;5091875;28;20344;-64
2023/12/30 05:34:54;;;;;;;15.20;11.80;;;;;;;6.55;100.00;147694.97;5091465;28;20238;-63
2023/12/30 05:37:21;;;;;;;12.37;11.20;;;;;;;6.64;100.00;147717.66;5091758;28;20229;-63
2023/12/30 05:39:48;;;;;;;12.93;11.70;;;;;;;6.69;100.00;147730.28;5091552;28;20180;-63
2023/12/30 05:42:15;;;;;;;18.20;13.43;;;;;;;6.76;100.00;147747.91;5091542;28;20188;-64
2023/12/30 05:44:42;;;;;;;13.40;11.43;;;;;;;6.78;100.00;147752.97;5091482;28;20192;-63
2023/12/30 05:47:09;;;;;;;13.50;11.47;;;;;;;6.62;100.00;147712.59;5091661;28;20273;-64
2023/12/30 05:49:40;;;;;;;22.03;11.70;;;;;;;6.37;100.00;147650.88;5091641;28;20188;-63
2023/12/30 05:52:08;;;;;;;17.87;10.47;;;;;;;6.53;100.00;147689.97;5093651;28;20291;-63
2023/12/30 05:54:35;;;;;;;15.97;10.90;;;;;;;6.47;100.00;147674.81;5095084;28;20200;-63
2023/12/30 05:57:02;;;;;;;17.63;10.67;;;;;;;6.33;100.00;147639.53;5094913;28;20272;-64
2023/12/30 05:59:29;;;;;;;11.83;10.73;;;;;;;6.19;100.00;147604.31;5095278;28;20559;-63
2023/12/30 06:01:58;;;;;;;19.47;12.33;;;;;;;5.99;100.00;147555.16;5094856;28;20184;-63
2023/12/30 06:04:25;;;;;;;30.23;13.80;;;;;;;6.44;100.00;147667.28;5094985;28;20192;-64
2023/12/30 06:06:54;;;;;;;28.90;17.57;;;;;;;6.40;100.00;147657.19;5095028;28;20219;-63
2023/12/30 06:09:21;;;;;;;23.63;15.17;;;;;;;6.37;100.00;147649.59;5095012;28;20192;-63
2023/12/30 06:11:49;;;;;;;25.47;14.93;;;;;;;6.70;100.00;147732.81;5094993;28;20188;-63
2023/12/30 06:14:16;;;;;;;15.33;13.80;;;;;;;6.85;100.00;147770.59;5094861;28;20184;-64
2023/12/30 06:16:43;;;;;;;20.03;14.20;;;;;;;6.91;100.00;147784.47;5094633;28;20180;-63
2023/12/30 06:19:10;;;;;;;30.40;14.00;;;;;;;7.05;100.00;147818.44;5094512;28;20237;-64
2023/12/30 06:21:37;;;;;;;19.53;13.83;;;;;;;7.31;100.00;147884.00;5094944;28;20589;-63
2023/12/30 06:24:06;;;;;;;27.60;14.87;;;;;;;7.35;100.00;147894.09;5094765;28;20192;-63
2023/12/30 06:26:37;;;;;;;19.60;13.90;;;;;;;7.30;100.00;147881.47;5094322;28;20212;-64
2023/12/30 06:29:04;;;;;;;17.80;13.37;;;;;;;7.46;100.00;147921.84;5094556;28;20195;-64
2023/12/30 06:31:31;;;;;;;18.87;14.23;;;;;;;8.00;100.00;148055.50;5094665;28;20623;-64
2023/12/30 06:33:58;;;;;;;15.57;13.67;;;;;;;8.34;100.00;148140.09;5094144;28;20180;-65
2023/12/30 06:36:26;;;;;;;25.10;13.70;;;;;;;8.24;100.00;148116.06;5094445;28;20246;-64
2023/12/30 06:38:53;;;;;;;31.93;13.13;;;;;;;8.49;100.00;148177.91;5094044;28;20194;-64
2023/12/30 06:41:21;;;;;;;18.07;13.47;;;;;;;8.63;100.00;148214.53;5094346;28;20233;-65
2023/12/30 06:43:48;;;;;;;17.33;13.83;;;;;;;8.79;100.00;148252.38;5094008;28;20184;-64
2023/12/30 06:46:19;;;;;;;19.50;14.43;;;;;;;8.87;100.00;148272.63;5094242;28;20684;-65
2023/12/30 06:48:46;;;;;;;25.20;14.53;;;;;;;8.88;100.00;148276.38;5093954;28;20188;-63
2023/12/30 06:51:13;;;;;;;28.03;14.97;;;;;;;9.42;100.00;148410.25;5094157;28;20229;-64
2023/12/30 06:53:40;;;;;;;26.40;17.37;;;;;;;9.74;100.00;148489.78;5093839;28;20328;-65
2023/12/30 06:56:08;;;;;;;34.90;15.83;;;;;;;9.86;100.00;148521.38;5094172;28;20225;-64
2023/12/30 06:58:37;;;;;;;28.53;15.97;;;;;;;10.35;100.00;148644.00;5093782;28;20191;-64
2023/12/30 07:01:05;;;;;;;26.80;14.27;;;;;;;10.82;100.00;148760.31;5094145;28;20192;-64
2023/12/30 07:03:32;;;;;;;23.43;14.30;;;;;;;10.66;100.00;148719.81;5093597;28;20219;-63
2023/12/30 07:05:59;;;;;;;24.83;15.07;;;;;;;10.86;100.00;148770.41;5093940;28;20211;-64
2023/12/30 07:08:26;;;;;;;24.43;14.73;;;;;;;11.18;100.00;148850.03;5093824;28;20238;-64
2023/12/30 07:10:53;;;;;;;21.17;13.90;;;;;;;11.42;100.00;148912.00;5093600;28;20218;-64
2023/12/30 07:13:20;;;;;;;24.57;15.17;;;;;;;12.41;100.00;149157.56;5093744;28;20184;-63
2023/12/30 07:15:50;;;;;;;25.67;14.87;;;;;;;12.81;100.00;149260.09;5093461;28;20332;-64
2023/12/30 07:18:17;;;;;;;24.83;13.77;;;;;;;13.11;100.00;149334.84;5093912;28;20663;-64
2023/12/30 07:20:44;;;;;;;21.93;12.67;;;;;;;14.10;100.00;149581.94;5093337;28;20241;-63
2023/12/30 07:23:11;;;;;;;29.43;14.77;;;;;;;14.76;100.00;149748.13;5093322;28;20183;-64
2023/12/30 07:25:39;;;;;;;14.00;12.60;;;;;;;15.01;100.00;149811.53;5093604;28;20274;-64
2023/12/30 07:28:07;;;;;;;17.40;12.73;;;;;;;14.94;100.00;149792.47;5093137;28;20204;-64
2023/12/30 07:30:36;;;;;;;22.63;13.03;;;;;;;14.89;100.00;149781.09;5093070;28;20195;-64
2023/12/30 07:33:05;;;;;;;17.93;12.43;;;;;;;15.60;99.89;149957.47;5093364;28;20180;-64
2023/12/30 07:35:32;;;;;;;19.50;12.27;;;;;;;15.37;100.00;149900.28;5093014;28;20184;-64
2023/12/30 07:37:59;;;;;;;25.47;12.90;;;;;;;15.78;98.48;150003.16;5093025;28;20245;-64
2023/12/30 07:40:26;;;;;;;31.77;13.20;;;;;;;16.60;92.33;150210.13;5093026;28;20261;-65
2023/12/30 07:42:54;;;;;;;32.03;12.27;;;;;;;16.50;89.71;150184.72;5092825;28;20184;-64
2023/12/30 07:45:21;;;;;;;27.77;12.23;;;;;;;17.01;88.98;150311.75;5093134;28;20275;-65
2023/12/30 07:47:48;;;;;;;31.43;13.00;;;;;;;17.09;86.06;150333.34;5092726;28;20582;-64
2023/12/30 07:50:17;;;;;;;23.50;12.03;;;;;;;17.10;85.62;150335.84;5093067;28;20566;-64
2023/12/30 07:52:44;;;;;;;44.80;14.37;;;;;;;16.79;88.85;150258.41;5092695;28;20228;-64
2023/12/30 07:55:11;;;;;;;30.53;14.33;;;;;;;16.46;90.26;150175.78;5093018;28;20650;-64
2023/12/30 07:57:38;;;;;;;49.40;12.83;;;;;;;16.70;89.00;150234.25;5092624;28;20308;-64
2023/12/30 08:00:06;;;;;;;42.13;14.40;;;;;;;17.05;86.10;150321.91;5092744;28;20257;-65
2023/12/30 08:02:34;;;;;;;32.00;11.80;;;;;;;16.93;86.97;150291.44;5092657;28;20184;-64
2023/12/30 08:05:01;;;;;;;20.30;10.87;;;;;;;17.20;85.46;150361.28;5092440;28;20218;-65
2023/12/30 08:07:31;;;;;;;26.00;11.50;;;;;;;17.80;82.05;150512.56;5092853;28;20661;-65
2023/12/30 08:09:58;;;;;;;25.03;11.97;;;;;;;18.41;76.29;150665.16;5092403;28;20188;-65
2023/12/30 08:12:25;;;;;;;35.00;11.97;;;;;;;18.37;75.16;150654.97;5092553;28;20203;-65
2023/12/30 08:14:52;;;;;;;49.30;12.27;;;;;;;19.32;73.25;150894.13;5092042;28;20184;-65
2023/12/30 08:17:19;;;;;;;55.10;13.23;;;;;;;20.14;69.62;151100.41;5092561;28;20613;-64
2023/12/30 08:19:46;;;;;;;42.97;11.75;;;;;;;20.70;65.68;151241.81;5092344;28;20188;-65
2023/12/30 08:22:13;;;;;;;24.00;12.25;;;;;;;20.77;63.40;151259.63;5092408;28;20192;-65
2023/12/30 08:24:42;;;;;;;33.05;12.60;;;;;;;20.37;64.25;151159.00;5092795;28;20601;-65
2023/12/30 08:27:09;;;;;;;34.58;11.60;;;;;;;19.65;67.29;150975.66;5092370;28;20192;-65
2023/12/30 08:29:36;;;;;;;24.67;12.48;;;;;;;20.24;67.62;151124.59;5092524;28;20219;-65
2023/12/30 08:32:06;;;;;;;39.58;12.68;;;;;;;20.22;66.78;151119.50;5092363;28;20185;-64
2023/12/30 08:34:33;;;;;;;22.38;13.25;;;;;;;21.19;65.56;151364.13;5092117;28;20192;-66
2023/12/30 08:37:07;;;;;;;35.85;13.75;;;;;;;21.09;65.31;151338.63;5092416;28;20230;-65
2023/12/30 08:39:35;;;;;;;35.40;14.68;;;;;;;21.22;64.68;151371.75;5092664;28;20631;-64
2023/12/30 08:42:03;;;;;;;30.95;15.10;;;;;;;20.77;66.67;151258.34;5092290;28;20229;-66
2023/12/30 08:44:30;;;;;;;38.90;15.73;;;;;;;19.95;68.83;151053.28;5092296;28;20237;-65
2023/12/30 08:46:58;;;;;;;32.08;15.23;;;;;;;19.34;73.14;150899.25;5092386;28;20710;-65
2023/12/30 08:49:25;;;;;;;29.87;14.97;;;;;;;18.16;83.63;150601.56;5092228;28;20218;-65
2023/12/30 08:51:52;;;;;;;30.67;19.63;;;;;;;17.46;92.29;150426.09;5091634;28;20216;-65
2023/12/30 08:54:19;;;;;;;44.30;23.10;;;;;;;17.57;93.40;150452.75;5091893;28;20235;-65
2023/12/30 08:56:47;;;;;;;39.57;23.93;;;;;;;17.50;93.88;150434.97;5091785;28;20233;-64
2023/12/30 08:59:15;;;;;;;37.33;23.70;;;;;;;17.83;94.37;150517.63;5091951;28;20192;-63
2023/12/30 09:01:43;;;;;;;29.13;21.27;;;;;;;18.55;89.78;150700.75;5091976;28;20184;-64
2023/12/30 09:04:10;;;;;;;26.70;19.10;;;;;;;19.91;79.03;151041.81;5092085;28;20229;-65
2023/12/30 09:06:37;;;;;;;31.38;20.02;;;;;;;21.35;71.28;151404.91;5092101;28;20241;-65
2023/12/30 09:09:05;;;;;;;32.50;18.48;;;;;;;22.57;65.28;151712.22;5091994;28;20212;-65
2023/12/30 09:11:37;;;;;;;27.52;19.05;;;;;;;23.66;60.03;151987.88;5091906;28;20180;-65
2023/12/30 09:14:04;;;;;;;23.65;17.23;;;;;;;24.05;56.29;152087.44;5091774;28;20275;-66
2023/12/30 09:16:33;;;;;;;37.72;17.92;;;;;;;22.93;57.65;151802.78;5091757;28;20241;-66
2023/12/30 09:19:00;;;;;;;31.33;17.35;;;;;;;22.33;59.38;151652.25;5091928;28;20680;-65
2023/12/30 09:21:29;;;;;;;30.90;17.58;;;;;;;21.57;62.92;151459.69;5091737;28;20241;-65
2023/12/30 09:23:57;;;;;;;19.25;16.10;;;;;;;21.76;61.85;151508.16;5091953;28;20184;-65
2023/12/30 09:26:24;;;;;;;29.80;15.98;;;;;;;21.97;61.84;151561.75;5093141;28;20314;-65
2023/12/30 09:28:52;;;;;;;26.38;14.55;;;;;;;22.31;60.88;151648.44;5095469;28;20249;-65
2023/12/30 09:31:21;;;;;;;25.40;14.77;;;;;;;22.57;59.19;151713.50;5095474;28;20190;-65
2023/12/30 09:33:50;;;;;;;26.35;14.85;;;;;;;21.84;61.30;151528.53;5095465;28;20274;-65
2023/12/30 09:36:18;;;;;;;18.80;14.02;;;;;;;21.21;64.66;151370.53;5095370;28;20184;-66
2023/12/30 09:38:45;;;;;;;18.75;14.20;;;;;;;21.13;64.92;151350.09;5095596;28;20187;-64
2023/12/30 09:41:14;;;;;;;22.98;15.50;;;;;;;20.45;68.42;151179.38;5095614;28;20609;-65
2023/12/30 09:43:42;;;;;;;16.10;14.70;;;;;;;20.13;71.12;151097.84;5095754;28;20241;-64
2023/12/30 09:46:10;;;;;;;14.13;13.07;;;;;;;20.10;71.97;151090.22;5095308;28;20267;-64
2023/12/30 09:48:40;;;;;;;20.40;14.30;;;;;;;19.94;71.36;151049.47;5095431;28;20208;-65
2023/12/30 09:51:09;;;;;;;16.85;12.32;;;;;;;20.31;68.94;151143.75;5095572;28;20233;-65
2023/12/30 09:53:36;;;;;;;17.73;10.88;;;;;;;20.31;64.75;151143.75;5095162;28;20228;-65
2023/12/30 09:56:05;;;;;;;9.98;9.02;;;;;;;20.02;64.63;151069.84;5095480;28;20183;-65
2023/12/30 09:58:33;;;;;;;11.45;9.68;;;;;;;20.29;63.58;151138.63;5095096;28;20184;-66
2023/12/30 10:01:00;;;;;;;12.32;9.93;;;;;;;20.32;62.35;151146.31;5095142;28;20180;-65
2023/12/30 10:03:29;;;;;;;8.90;8.25;;;;;;;20.07;63.36;151083.81;5095307;28;20669;-65
2023/12/30 10:05:59;;;;;;;14.75;8.02;;;;;;;20.07;62.55;151082.59;5094856;28;20190;-65
2023/12/30 10:08:28;;;;;;;12.50;8.10;;;;;;;20.31;61.19;151142.47;5094723;28;20211;-64
2023/12/30 10:10:57;;;;;;;7.88;6.85;;;;;;;20.21;61.24;151118.22;5095027;28;20638;-65
2023/12/30 10:13:26;;;;;;;7.85;7.28;;;;;;;20.54;59.70;151199.78;5094676;28;20176;-65
2023/12/30 10:15:54;;;;;;;8.18;7.70;;;;;;;20.99;59.53;151314.41;5094705;28;20181;-64
2023/12/30 10:18:20;;;;;;;13.80;8.13;;;;;;;21.25;59.49;151379.44;5095331;28;20196;-65
2023/12/30 10:20:48;;;;;;;8.60;7.80;;;;;;;21.34;58.59;151402.38;5094856;28;20278;-66
2023/12/30 10:23:15;;;;;;;8.80;8.20;;;;;;;21.14;58.53;151352.66;5094487;28;20180;-64
2023/12/30 10:25:43;;;;;;;12.05;9.40;;;;;;;21.05;59.46;151329.66;5094688;28;20574;-65
2023/12/30 10:28:10;;;;;;;11.52;10.32;;;;;;;21.59;58.79;151466.09;5094622;28;20269;-65
2023/12/30 10:30:38;;;;;;;19.27;12.25;;;;;;;21.94;57.61;151554.06;5094932;28;20218;-65
2023/12/30 10:33:08;;;;;;;13.68;12.25;;;;;;;21.95;56.17;151556.63;5094668;28;20613;-66
2023/12/30 10:35:35;;;;;;;15.90;12.05;;;;;;;22.22;55.87;151625.50;5094729;28;20199;-65
2023/12/30 10:38:03;;;;;;;24.80;15.45;;;;;;;22.38;55.07;151663.72;5093695;28;20233;-65
2023/12/30 10:40:31;;;;;;;25.40;16.15;;;;;;;22.56;54.62;151710.94;5094311;28;20181;-65
2023/12/30 10:43:01;;;;;;;20.13;13.45;;;;;;;22.11;54.60;151597.41;5094427;28;20224;-65
2023/12/30 10:45:29;;;;;;;19.20;13.05;;;;;;;21.59;54.91;151466.09;5094136;28;20249;-65
2023/12/30 10:47:57;;;;;;;10.50;9.52;;;;;;;21.09;55.75;151338.63;5094218;28;20219;-65
2023/12/30 10:50:26;;;;;;;9.30;8.63;;;;;;;21.07;55.79;151333.50;5094274;28;20219;-65
2023/12/30 10:53:07;;;;;;;10.25;9.63;;;;;;;20.70;56.53;151241.81;5093751;28;20232;-66
2023/12/30 10:55:35;;;;;;;8.73;8.13;;;;;;;20.63;56.82;151222.66;5093921;28;20226;-65
2023/12/30 10:58:18;;;;;;;7.97;7.30;;;;;;;20.61;55.93;151217.59;5094110;28;20180;-65
2023/12/30 11:00:49;;;;;;;10.27;6.97;;;;;;;20.31;55.98;151143.75;5093922;28;20184;-66
2023/12/30 11:03:16;;;;;;;9.63;7.20;;;;;;;20.12;56.64;151095.28;5094289;28;20656;-65
2023/12/30 11:05:54;;;;;;;11.88;7.45;;;;;;;20.45;56.20;151179.38;5093813;28;20257;-66
2023/12/30 11:08:21;;;;;;;10.80;8.05;;;;;;;20.45;55.18;151179.38;5093736;28;20215;-65
2023/12/30 11:10:50;;;;;;;8.98;7.80;;;;;;;20.22;56.82;151120.75;5094089;28;20707;-66